Time;durP1;ratioP1;P1;durP2;ratioP2;P2;SDS_P1;SDS_P2;PMS_P1;PMS_P2;Temp;Humidity;BMP_temperature;BMP_pressure;BME280_temperature;BME280_humidity;BME280_pressure;Samples;Min_cycle;Max_cycle;Signal;HPM_P1;HPM_P2
2022/03/08 00:00:43;;;;;;;18.93;15.13;;;4.50;49.40;;;;;;5040784;28;20676;-73
2022/03/08 00:03:09;;;;;;;19.87;14.87;;;4.50;49.60;;;;;;5057579;28;20434;-73
2022/03/08 00:05:34;;;;;;;20.60;15.30;;;4.60;49.60;;;;;;5057142;28;20441;-73
2022/03/08 00:08:01;;;;;;;21.30;15.80;;;4.70;49.50;;;;;;5040481;28;20184;-72
2022/03/08 00:10:26;;;;;;;20.50;16.33;;;4.80;49.20;;;;;;5058483;28;20305;-71
2022/03/08 00:12:53;;;;;;;21.73;15.90;;;4.80;49.00;;;;;;5060026;28;20544;-70
2022/03/08 00:15:24;;;;;;;21.80;15.70;;;4.80;49.10;;;;;;5037796;28;20472;-71
2022/03/08 00:17:51;;;;;;;22.13;15.43;;;4.80;49.00;;;;;;5059668;28;20437;-72
2022/03/08 00:20:17;;;;;;;21.50;16.60;;;4.60;49.30;;;;;;5055157;28;20484;-72
2022/03/08 00:22:43;;;;;;;18.53;15.07;;;4.80;49.20;;;;;;5060148;28;20426;-73
2022/03/08 00:25:11;;;;;;;20.17;15.13;;;4.70;49.00;;;;;;5040480;28;20867;-74
2022/03/08 00:27:37;;;;;;;22.37;17.37;;;4.80;49.10;;;;;;5059080;28;20868;-74
2022/03/08 00:33:25;;;;;;;19.77;15.60;;;4.60;49.60;;;;;;5058186;28;20428;-73
2022/03/08 00:35:52;;;;;;;23.13;16.27;;;4.60;49.50;;;;;;5043283;28;21288;-73
2022/03/08 00:38:18;;;;;;;20.30;14.50;;;4.50;49.70;;;;;;5059274;28;20479;-73
2022/03/08 00:40:44;;;;;;;22.00;16.67;;;4.60;49.50;;;;;;5058321;28;20473;-73
2022/03/08 00:43:09;;;;;;;23.70;15.67;;;4.50;49.60;;;;;;5057751;28;20433;-73
2022/03/08 00:45:35;;;;;;;20.17;15.60;;;4.50;49.80;;;;;;5060623;28;20914;-73
2022/03/08 00:48:01;;;;;;;19.93;15.10;;;4.50;49.90;;;;;;5054962;28;20199;-73
2022/03/08 00:50:29;;;;;;;19.63;15.43;;;4.60;49.70;;;;;;5059710;28;20207;-72
2022/03/08 00:52:56;;;;;;;20.33;15.00;;;4.60;49.60;;;;;;5057490;28;20455;-72
2022/03/08 00:55:24;;;;;;;21.80;15.70;;;4.60;49.60;;;;;;5061325;28;20413;-72
2022/03/08 00:57:50;;;;;;;21.53;16.77;;;4.60;49.70;;;;;;5055417;28;20434;-72
2022/03/08 01:00:19;;;;;;;18.77;15.37;;;4.70;49.70;;;;;;5057718;28;20469;-71
2022/03/08 01:02:45;;;;;;;23.50;16.20;;;4.80;49.50;;;;;;5058392;28;20434;-71
2022/03/08 01:05:10;;;;;;;20.63;14.90;;;4.70;49.40;;;;;;5060827;28;20440;-72
2022/03/08 01:07:36;;;;;;;25.10;17.00;;;4.60;49.40;;;;;;5059027;28;20815;-71
2022/03/08 01:10:05;;;;;;;28.20;16.60;;;4.60;49.40;;;;;;5042750;28;20201;-71
2022/03/08 01:12:31;;;;;;;26.23;15.37;;;4.40;49.60;;;;;;5061343;28;20429;-73
2022/03/08 01:14:57;;;;;;;20.60;15.07;;;4.50;49.50;;;;;;5060558;28;20444;-72
2022/03/08 01:17:22;;;;;;;20.80;13.93;;;4.50;49.40;;;;;;5057221;28;20687;-73
2022/03/08 01:19:48;;;;;;;24.77;15.60;;;4.60;49.40;;;;;;5060667;28;20340;-72
2022/03/08 01:22:14;;;;;;;22.07;15.93;;;4.50;49.40;;;;;;5063770;28;20194;-73
2022/03/08 01:24:39;;;;;;;26.10;15.30;;;4.20;49.60;;;;;;5059763;28;20197;-72
2022/03/08 01:27:05;;;;;;;18.20;13.23;;;4.20;50.00;;;;;;5061756;28;20205;-73
2022/03/08 01:29:31;;;;;;;16.93;13.70;;;4.00;50.30;;;;;;5060376;28;20668;-72
2022/03/08 01:31:56;;;;;;;19.60;14.47;;;4.10;50.40;;;;;;5060741;28;20184;-73
2022/03/08 01:34:22;;;;;;;20.77;15.80;;;4.10;50.50;;;;;;5061729;28;20224;-71
2022/03/08 01:36:48;;;;;;;19.80;14.17;;;4.20;50.40;;;;;;5042160;28;20191;-71
2022/03/08 01:39:13;;;;;;;17.53;14.70;;;4.10;50.50;;;;;;5059291;28;20294;-71
2022/03/08 01:41:39;;;;;;;20.87;15.10;;;4.10;50.50;;;;;;5057724;28;20207;-72
2022/03/08 01:44:08;;;;;;;20.10;15.40;;;4.30;50.40;;;;;;5060958;28;20183;-72
2022/03/08 01:46:36;;;;;;;24.40;15.27;;;4.10;50.40;;;;;;5058352;28;20240;-73
2022/03/08 01:49:05;;;;;;;19.93;14.10;;;4.20;50.70;;;;;;5043954;28;20479;-72
2022/03/08 01:51:33;;;;;;;18.73;14.03;;;4.30;50.30;;;;;;5057935;28;20437;-72
2022/03/08 01:53:58;;;;;;;20.40;14.27;;;3.90;50.60;;;;;;5061446;28;20437;-72
2022/03/08 01:56:24;;;;;;;19.50;14.63;;;4.00;50.90;;;;;;5056477;28;20497;-73
2022/03/08 01:58:50;;;;;;;20.30;14.97;;;4.00;50.90;;;;;;5061125;28;20191;-72
2022/03/08 02:01:16;;;;;;;20.47;14.73;;;4.00;50.70;;;;;;5063495;28;20472;-73
2022/03/08 02:03:41;;;;;;;22.20;14.00;;;4.10;50.90;;;;;;5064711;28;20212;-72
2022/03/08 02:06:07;;;;;;;21.53;15.03;;;4.10;51.20;;;;;;5062805;28;20195;-72
2022/03/08 02:08:33;;;;;;;20.40;14.37;;;4.10;51.00;;;;;;5064801;28;20220;-72
2022/03/08 02:10:58;;;;;;;19.70;13.30;;;4.00;51.30;;;;;;5065791;28;20219;-72
2022/03/08 02:13:27;;;;;;;19.07;14.13;;;3.90;51.40;;;;;;5064521;28;20889;-71
2022/03/08 02:15:53;;;;;;;18.67;13.67;;;4.00;51.20;;;;;;5066096;28;20290;-72
2022/03/08 02:18:19;;;;;;;22.40;14.43;;;4.00;51.00;;;;;;5064506;28;20437;-73
2022/03/08 02:20:46;;;;;;;22.20;14.30;;;3.90;51.10;;;;;;5066422;28;20546;-73
2022/03/08 02:23:12;;;;;;;18.43;13.57;;;4.00;51.30;;;;;;5063131;28;20188;-73
2022/03/08 02:25:38;;;;;;;16.03;13.60;;;3.90;51.20;;;;;;5066057;28;20460;-73
2022/03/08 02:28:05;;;;;;;18.43;14.03;;;3.90;51.30;;;;;;5060263;28;20860;-73
2022/03/08 02:30:31;;;;;;;18.13;13.97;;;3.80;51.20;;;;;;5066383;28;20199;-72
2022/03/08 02:32:56;;;;;;;19.00;12.97;;;3.90;51.40;;;;;;5062206;28;20808;-73
2022/03/08 02:35:24;;;;;;;17.70;13.10;;;4.00;51.30;;;;;;5066067;28;20187;-72
2022/03/08 02:37:54;;;;;;;16.97;13.57;;;3.80;51.30;;;;;;5064300;28;20588;-72
2022/03/08 02:40:28;;;;;;;14.80;12.90;;;3.80;51.50;;;;;;5046342;28;20997;-72
2022/03/08 02:42:54;;;;;;;19.63;12.50;;;3.90;51.40;;;;;;5063083;28;20824;-72
2022/03/08 02:45:21;;;;;;;18.80;13.10;;;3.80;51.60;;;;;;5062845;28;20479;-73
2022/03/08 02:47:47;;;;;;;18.30;14.03;;;3.80;51.60;;;;;;5062502;28;20961;-73
2022/03/08 02:50:14;;;;;;;19.13;13.13;;;3.70;51.80;;;;;;5046215;28;20468;-72
2022/03/08 02:52:41;;;;;;;16.40;13.07;;;3.70;51.90;;;;;;5063468;28;20384;-73
2022/03/08 02:55:08;;;;;;;14.20;11.90;;;3.80;51.80;;;;;;5061115;28;20464;-73
2022/03/08 02:57:34;;;;;;;17.93;13.27;;;3.90;51.70;;;;;;5063631;28;21077;-74
2022/03/08 03:00:01;;;;;;;15.53;12.70;;;3.80;51.40;;;;;;5061972;28;20473;-73
2022/03/08 03:02:26;;;;;;;19.50;12.90;;;3.90;51.80;;;;;;5064802;28;20421;-74
2022/03/08 03:04:52;;;;;;;19.93;13.23;;;3.90;51.90;;;;;;5062715;28;20484;-73
2022/03/08 03:07:17;;;;;;;19.10;13.37;;;3.70;52.30;;;;;;5062021;28;20183;-74
2022/03/08 03:09:43;;;;;;;17.37;12.40;;;3.70;52.50;;;;;;5062436;28;20852;-74
2022/03/08 03:12:09;;;;;;;16.97;13.00;;;3.60;52.90;;;;;;5060326;28;20556;-73
2022/03/08 03:14:35;;;;;;;17.73;13.57;;;3.70;53.10;;;;;;5062982;28;20440;-74
2022/03/08 03:17:00;;;;;;;16.30;12.70;;;3.70;52.90;;;;;;5059991;28;20187;-74
2022/03/08 03:19:26;;;;;;;19.90;12.83;;;3.70;52.80;;;;;;5048459;28;20460;-73
2022/03/08 03:21:52;;;;;;;16.77;11.93;;;3.60;53.10;;;;;;5061086;28;20234;-73
2022/03/08 03:24:17;;;;;;;16.93;12.10;;;3.60;53.10;;;;;;5064830;28;20544;-73
2022/03/08 03:26:43;;;;;;;17.07;11.70;;;3.70;52.60;;;;;;5058586;28;20179;-73
2022/03/08 03:29:09;;;;;;;16.93;12.33;;;3.70;52.80;;;;;;5047091;28;20226;-73
2022/03/08 03:31:34;;;;;;;15.70;11.97;;;3.60;52.70;;;;;;5061784;28;20189;-73
2022/03/08 03:34:00;;;;;;;14.57;11.70;;;3.30;53.10;;;;;;5062312;28;20560;-72
2022/03/08 03:36:26;;;;;;;16.20;11.50;;;3.50;53.30;;;;;;5061159;28;20187;-72
2022/03/08 03:38:53;;;;;;;12.47;10.40;;;3.40;53.30;;;;;;5060851;28;20202;-72
2022/03/08 03:41:18;;;;;;;15.57;11.80;;;3.30;53.50;;;;;;5043254;28;20294;-72
2022/03/08 03:43:44;;;;;;;15.53;10.83;;;3.40;53.40;;;;;;5063534;28;20520;-71
2022/03/08 03:46:10;;;;;;;15.60;11.83;;;3.40;53.30;;;;;;5060972;28;20782;-72
2022/03/08 03:48:35;;;;;;;19.27;13.57;;;3.50;53.30;;;;;;5043030;28;20224;-72
2022/03/08 03:51:01;;;;;;;14.63;11.77;;;3.60;53.00;;;;;;5060607;28;20221;-72
2022/03/08 03:53:27;;;;;;;17.47;12.23;;;3.60;52.80;;;;;;5064103;28;20198;-72
2022/03/08 03:55:52;;;;;;;16.20;12.77;;;3.70;52.60;;;;;;5061047;28;20815;-72
2022/03/08 03:58:18;;;;;;;15.30;11.03;;;3.80;52.40;;;;;;5061890;28;20312;-73
2022/03/08 04:00:44;;;;;;;15.03;11.60;;;3.70;52.30;;;;;;5065112;28;20214;-73
2022/03/08 04:03:10;;;;;;;13.97;12.20;;;3.50;52.50;;;;;;5044774;28;20179;-73
2022/03/08 04:05:35;;;;;;;14.77;11.53;;;3.70;52.60;;;;;;5063752;28;20218;-73
2022/03/08 04:08:01;;;;;;;19.47;12.43;;;3.60;52.80;;;;;;5059941;28;20207;-73
2022/03/08 04:10:27;;;;;;;18.90;10.87;;;3.60;52.90;;;;;;5063996;28;20215;-73
2022/03/08 04:12:52;;;;;;;18.10;11.90;;;3.60;52.70;;;;;;5059900;28;20282;-71
2022/03/08 04:15:18;;;;;;;19.23;12.23;;;3.70;52.60;;;;;;5045651;28;20594;-71
2022/03/08 04:17:44;;;;;;;15.60;12.00;;;3.70;52.60;;;;;;5059216;28;20187;-73
2022/03/08 04:20:10;;;;;;;14.50;10.90;;;3.70;52.50;;;;;;5043670;28;20737;-73
2022/03/08 04:22:36;;;;;;;16.80;12.20;;;3.70;52.30;;;;;;5060330;28;20640;-73
2022/03/08 04:25:03;;;;;;;16.60;11.37;;;3.50;52.40;;;;;;5062191;28;20429;-71
2022/03/08 04:27:29;;;;;;;12.57;11.03;;;3.60;52.50;;;;;;5061561;28;20428;-71
2022/03/08 04:29:55;;;;;;;15.43;10.73;;;3.70;52.50;;;;;;5061036;28;20615;-72
2022/03/08 04:32:21;;;;;;;13.70;10.70;;;3.60;52.30;;;;;;5063161;28;20201;-72
2022/03/08 04:34:46;;;;;;;15.00;11.83;;;3.70;52.30;;;;;;5059020;28;20560;-72
2022/03/08 04:37:12;;;;;;;12.43;9.87;;;3.80;52.20;;;;;;5061845;28;20214;-72
2022/03/08 04:39:38;;;;;;;14.80;10.90;;;3.60;52.30;;;;;;5059302;28;20215;-72
2022/03/08 04:42:04;;;;;;;14.30;10.87;;;3.60;52.50;;;;;;5062154;28;20649;-72
2022/03/08 04:44:30;;;;;;;16.97;12.07;;;3.70;52.20;;;;;;5056461;28;20249;-72
2022/03/08 04:46:55;;;;;;;15.87;10.90;;;3.60;52.20;;;;;;5062373;28;20489;-73
2022/03/08 04:49:21;;;;;;;15.63;10.20;;;3.50;52.60;;;;;;5060972;28;20437;-72
2022/03/08 04:51:47;;;;;;;14.30;11.30;;;3.60;52.70;;;;;;5061103;28;20910;-71
2022/03/08 04:54:13;;;;;;;15.83;11.60;;;3.50;52.80;;;;;;5058563;28;20985;-73
2022/03/08 04:56:38;;;;;;;16.63;10.47;;;3.60;52.50;;;;;;5061201;28;20189;-73
2022/03/08 04:59:04;;;;;;;17.83;11.53;;;3.70;52.60;;;;;;5058148;28;20217;-73
2022/03/08 05:01:30;;;;;;;14.97;11.53;;;3.50;53.10;;;;;;5062237;28;20202;-73
2022/03/08 05:03:56;;;;;;;13.67;11.20;;;3.40;53.40;;;;;;5060349;28;20191;-73
2022/03/08 05:06:21;;;;;;;16.20;11.60;;;3.30;53.60;;;;;;5060170;28;20266;-73
2022/03/08 05:08:47;;;;;;;17.80;11.40;;;3.50;53.80;;;;;;5059693;28;20428;-73
2022/03/08 05:11:14;;;;;;;15.70;11.63;;;3.50;53.70;;;;;;5060761;28;20689;-73
2022/03/08 05:13:39;;;;;;;20.90;13.70;;;3.50;53.90;;;;;;5060474;28;20184;-72
2022/03/08 05:16:05;;;;;;;17.23;12.47;;;3.50;54.10;;;;;;5061226;28;20437;-72
2022/03/08 05:18:31;;;;;;;18.00;12.60;;;3.60;54.20;;;;;;5060579;28;20438;-72
2022/03/08 05:20:57;;;;;;;19.03;11.90;;;3.50;54.20;;;;;;5061879;28;20876;-72
2022/03/08 05:23:23;;;;;;;16.63;11.23;;;3.40;54.20;;;;;;5060463;28;20267;-72
2022/03/08 05:25:48;;;;;;;13.00;10.27;;;3.40;54.00;;;;;;5060114;28;20179;-72
2022/03/08 05:28:14;;;;;;;15.50;10.90;;;3.50;53.90;;;;;;5060281;28;20184;-71
2022/03/08 05:30:40;;;;;;;16.43;11.40;;;3.40;54.00;;;;;;5058763;28;20217;-71
2022/03/08 05:33:06;;;;;;;15.00;11.10;;;3.40;54.00;;;;;;5060481;28;20270;-71
2022/03/08 05:35:32;;;;;;;14.70;11.90;;;3.20;54.20;;;;;;5059707;28;20528;-71
2022/03/08 05:37:58;;;;;;;17.13;11.10;;;3.00;54.50;;;;;;5059923;28;20437;-72
2022/03/08 05:40:23;;;;;;;15.13;11.70;;;3.00;54.60;;;;;;5057262;28;20857;-72
2022/03/08 05:42:49;;;;;;;13.50;10.43;;;3.00;54.50;;;;;;5061603;28;20683;-72
2022/03/08 05:45:15;;;;;;;14.13;11.10;;;2.80;54.60;;;;;;5059977;28;20222;-72
2022/03/08 05:47:41;;;;;;;14.57;10.70;;;2.90;54.80;;;;;;5058551;28;20252;-72
2022/03/08 05:50:11;;;;;;;16.53;11.37;;;3.00;54.90;;;;;;5061087;28;20806;-73
2022/03/08 05:52:37;;;;;;;18.37;10.70;;;3.00;54.60;;;;;;5060718;28;20475;-72
2022/03/08 05:55:06;;;;;;;15.93;11.20;;;3.00;54.70;;;;;;5061030;28;20498;-72
2022/03/08 05:57:32;;;;;;;17.43;12.10;;;2.90;54.70;;;;;;5060092;28;20190;-73
2022/03/08 05:59:57;;;;;;;17.00;12.30;;;2.90;54.70;;;;;;5041383;28;21016;-73
2022/03/08 06:02:23;;;;;;;13.53;11.07;;;2.90;54.80;;;;;;5060639;28;20190;-73
2022/03/08 06:04:49;;;;;;;16.93;11.57;;;2.90;55.00;;;;;;5057612;28;20191;-73
2022/03/08 06:07:14;;;;;;;12.83;10.83;;;2.90;55.00;;;;;;5043605;28;20187;-73
2022/03/08 06:09:40;;;;;;;16.43;11.97;;;3.00;54.60;;;;;;5059585;28;20252;-74
2022/03/08 06:12:06;;;;;;;14.50;11.30;;;3.00;54.70;;;;;;5061504;28;20180;-73
2022/03/08 06:14:32;;;;;;;16.70;11.27;;;3.00;54.70;;;;;;5056284;28;20179;-72
2022/03/08 06:16:58;;;;;;;14.40;10.40;;;3.10;54.90;;;;;;5059852;28;20435;-73
2022/03/08 06:19:24;;;;;;;13.20;10.47;;;3.00;54.60;;;;;;5060785;28;20256;-73
2022/03/08 06:21:51;;;;;;;13.90;10.90;;;3.00;54.70;;;;;;5059385;28;20743;-73
2022/03/08 06:24:17;;;;;;;14.97;10.67;;;3.10;55.10;;;;;;5061073;28;20441;-73
2022/03/08 06:26:43;;;;;;;17.60;12.00;;;3.10;54.50;;;;;;5041418;28;20831;-73
2022/03/08 06:29:09;;;;;;;16.97;12.37;;;3.20;54.60;;;;;;5060397;28;20430;-73
2022/03/08 06:31:35;;;;;;;16.27;10.43;;;3.10;54.70;;;;;;5057038;28;20192;-73
2022/03/08 06:34:01;;;;;;;16.97;11.37;;;3.00;54.50;;;;;;5060943;28;20437;-73
2022/03/08 06:36:26;;;;;;;14.43;11.07;;;3.10;54.50;;;;;;5059227;28;20501;-73
2022/03/08 06:38:52;;;;;;;18.00;9.90;;;3.00;54.20;;;;;;5059915;28;20180;-73
2022/03/08 06:41:18;;;;;;;14.13;11.13;;;2.90;54.60;;;;;;5060482;28;20210;-73
2022/03/08 06:43:43;;;;;;;15.97;11.10;;;3.10;54.70;;;;;;5056015;28;20187;-72
2022/03/08 06:46:09;;;;;;;15.27;11.03;;;3.10;54.70;;;;;;5057554;28;20187;-73
2022/03/08 06:48:36;;;;;;;15.43;10.80;;;3.00;54.70;;;;;;5063674;28;20274;-72
2022/03/08 06:51:01;;;;;;;14.30;11.37;;;3.00;54.70;;;;;;5060207;28;20292;-73
2022/03/08 06:53:27;;;;;;;17.27;11.93;;;3.00;54.60;;;;;;5063920;28;20540;-72
2022/03/08 06:55:53;;;;;;;14.30;11.07;;;3.10;55.00;;;;;;5059959;28;20508;-72
2022/03/08 06:58:18;;;;;;;13.60;10.20;;;3.10;54.80;;;;;;5060998;28;20226;-72
2022/03/08 07:00:44;;;;;;;14.87;10.87;;;3.20;55.00;;;;;;5061191;28;20394;-73
2022/03/08 07:03:09;;;;;;;16.23;10.30;;;3.00;54.90;;;;;;5064383;28;20289;-72
2022/03/08 07:05:37;;;;;;;16.10;12.87;;;3.00;55.10;;;;;;5059702;28;20191;-72
2022/03/08 07:08:03;;;;;;;16.23;11.73;;;3.00;55.30;;;;;;5061498;28;20197;-73
2022/03/08 07:10:28;;;;;;;15.03;11.50;;;3.10;55.40;;;;;;5060314;28;20683;-73
2022/03/08 07:12:54;;;;;;;14.60;10.90;;;3.00;55.50;;;;;;5062729;28;20579;-73
2022/03/08 07:15:20;;;;;;;19.20;12.50;;;3.00;55.30;;;;;;5060886;28;20195;-72
2022/03/08 07:17:46;;;;;;;17.50;11.60;;;3.20;55.20;;;;;;5056236;28;20183;-72
2022/03/08 07:20:13;;;;;;;15.10;10.57;;;3.20;54.90;;;;;;5044192;28;20309;-72
2022/03/08 07:22:39;;;;;;;13.20;11.03;;;3.30;54.70;;;;;;5062421;28;20481;-73
2022/03/08 07:25:06;;;;;;;14.63;10.73;;;3.30;54.80;;;;;;5062520;28;21028;-72
2022/03/08 07:27:32;;;;;;;17.37;10.80;;;3.30;55.10;;;;;;5063876;28;20583;-73
2022/03/08 07:29:57;;;;;;;18.00;11.00;;;3.20;55.10;;;;;;5062260;28;21148;-72
2022/03/08 07:32:23;;;;;;;15.27;10.90;;;3.20;54.70;;;;;;5060813;28;20688;-73
2022/03/08 07:34:48;;;;;;;16.13;11.60;;;3.20;54.90;;;;;;5058439;28;20230;-71
2022/03/08 07:37:14;;;;;;;15.20;10.30;;;3.20;55.20;;;;;;5049574;28;20519;-72
2022/03/08 07:39:40;;;;;;;17.23;10.27;;;3.10;55.10;;;;;;5059078;28;20208;-72
2022/03/08 07:42:05;;;;;;;18.97;11.60;;;3.20;54.90;;;;;;5062583;28;20182;-72
2022/03/08 07:44:31;;;;;;;16.37;10.73;;;3.40;54.80;;;;;;5061054;28;20433;-72
2022/03/08 07:46:57;;;;;;;14.00;10.13;;;3.40;54.60;;;;;;5062535;28;20559;-73
2022/03/08 07:49:24;;;;;;;15.70;10.30;;;3.40;54.50;;;;;;5060914;28;20230;-73
2022/03/08 07:51:50;;;;;;;16.27;10.47;;;3.60;54.30;;;;;;5062552;28;20183;-73
2022/03/08 07:54:16;;;;;;;16.20;11.63;;;3.60;54.20;;;;;;5061266;28;20627;-73
2022/03/08 07:56:42;;;;;;;13.80;10.30;;;3.60;54.30;;;;;;5060675;28;20781;-74
2022/03/08 07:59:07;;;;;;;15.90;11.63;;;3.80;53.90;;;;;;5042167;28;20590;-72
2022/03/08 08:01:33;;;;;;;19.90;12.00;;;4.00;54.00;;;;;;5060616;28;20631;-72
2022/03/08 08:03:58;;;;;;;20.73;12.70;;;4.10;53.40;;;;;;5064020;28;20184;-74
2022/03/08 08:06:24;;;;;;;14.17;9.70;;;4.10;53.30;;;;;;5060070;28;20274;-75
2022/03/08 08:08:49;;;;;;;16.97;11.90;;;4.20;53.40;;;;;;5044579;28;20183;-74
2022/03/08 08:11:16;;;;;;;14.70;11.13;;;4.20;52.60;;;;;;5043597;28;20211;-70
2022/03/08 08:13:42;;;;;;;17.30;11.43;;;4.20;52.50;;;;;;5061742;28;20437;-73
2022/03/08 08:16:07;;;;;;;13.47;9.67;;;4.20;52.60;;;;;;5059973;28;20199;-72
2022/03/08 08:18:33;;;;;;;14.33;10.27;;;4.00;52.40;;;;;;5059833;28;20191;-73
2022/03/08 08:21:01;;;;;;;17.53;11.87;;;4.10;52.50;;;;;;5061302;28;20226;-73
2022/03/08 08:23:26;;;;;;;13.17;8.97;;;4.10;52.40;;;;;;5060458;28;20215;-73
2022/03/08 08:25:52;;;;;;;12.80;10.40;;;4.30;52.40;;;;;;5062307;28;20496;-72
2022/03/08 08:28:17;;;;;;;12.50;9.90;;;4.40;52.20;;;;;;5057738;28;20187;-74
2022/03/08 08:30:43;;;;;;;13.20;11.43;;;4.50;51.90;;;;;;5060207;28;20291;-72
2022/03/08 08:33:09;;;;;;;12.03;10.13;;;4.60;51.80;;;;;;5057942;28;20216;-74
2022/03/08 08:35:34;;;;;;;15.83;9.80;;;4.60;51.90;;;;;;5061845;28;20281;-72
2022/03/08 08:38:00;;;;;;;14.80;8.80;;;4.50;52.00;;;;;;5059727;28;20190;-70
2022/03/08 08:40:26;;;;;;;16.40;9.47;;;4.60;52.60;;;;;;5061949;28;20231;-71
2022/03/08 08:42:51;;;;;;;14.83;10.20;;;4.60;52.00;;;;;;5060008;28;20237;-71
2022/03/08 08:45:17;;;;;;;14.27;10.83;;;4.80;52.10;;;;;;5061253;28;20676;-73
2022/03/08 08:47:43;;;;;;;11.90;9.60;;;4.80;51.90;;;;;;5044635;28;20183;-73
2022/03/08 08:50:09;;;;;;;10.90;9.50;;;4.90;52.20;;;;;;5041038;28;20698;-72
2022/03/08 08:52:35;;;;;;;14.30;9.60;;;4.90;52.20;;;;;;5061844;28;20210;-72
2022/03/08 08:55:00;;;;;;;14.53;9.63;;;5.00;52.00;;;;;;5060609;28;20434;-72
2022/03/08 08:57:26;;;;;;;14.47;9.53;;;5.00;52.30;;;;;;5057724;28;20218;-73
2022/03/08 08:59:51;;;;;;;14.03;10.27;;;5.10;51.90;;;;;;5060761;28;20225;-73
2022/03/08 09:02:17;;;;;;;12.30;9.47;;;5.20;52.10;;;;;;5060241;28;20855;-72
2022/03/08 09:04:43;;;;;;;10.83;9.13;;;5.20;52.10;;;;;;5046591;28;20187;-71
2022/03/08 09:07:08;;;;;;;13.17;9.97;;;5.20;52.00;;;;;;5057609;28;20190;-71
2022/03/08 09:09:34;;;;;;;13.60;9.10;;;5.30;52.00;;;;;;5061214;28;20282;-71
2022/03/08 09:12:00;;;;;;;11.20;9.10;;;5.40;52.00;;;;;;5042433;28;20206;-70
2022/03/08 09:14:26;;;;;;;13.20;9.57;;;5.40;52.00;;;;;;5041303;28;20539;-71
2022/03/08 09:16:52;;;;;;;12.30;9.40;;;5.50;51.90;;;;;;5060607;28;20474;-73
2022/03/08 09:19:17;;;;;;;11.57;8.63;;;5.50;52.10;;;;;;5060304;28;20202;-72
2022/03/08 09:21:43;;;;;;;11.20;9.40;;;5.50;52.10;;;;;;5061619;28;20480;-75
2022/03/08 09:24:09;;;;;;;14.03;8.70;;;5.60;52.30;;;;;;5057715;28;20413;-74
2022/03/08 09:26:34;;;;;;;11.53;9.20;;;5.70;52.20;;;;;;5057159;28;21148;-74
2022/03/08 09:29:00;;;;;;;12.90;9.57;;;5.80;51.90;;;;;;5056193;28;20182;-73
2022/03/08 09:31:26;;;;;;;12.07;9.97;;;5.90;51.80;;;;;;5057900;28;20224;-73
2022/03/08 09:33:51;;;;;;;10.20;8.80;;;5.90;51.60;;;;;;5059518;28;20194;-74
2022/03/08 09:36:17;;;;;;;17.57;9.97;;;6.00;51.70;;;;;;5058176;28;20225;-71
2022/03/08 09:38:44;;;;;;;11.70;9.50;;;6.00;51.60;;;;;;5058297;28;20179;-73
2022/03/08 09:41:11;;;;;;;12.30;8.90;;;6.00;51.60;;;;;;5055889;28;20207;-71
2022/03/08 09:43:37;;;;;;;14.00;9.93;;;6.10;52.00;;;;;;5056838;28;20425;-73
2022/03/08 09:46:04;;;;;;;12.57;9.97;;;6.20;51.70;;;;;;5060198;28;20437;-72
2022/03/08 09:48:30;;;;;;;12.50;11.20;;;6.30;51.70;;;;;;5053422;28;20993;-73
2022/03/08 09:51:00;;;;;;;11.53;8.60;;;6.30;51.40;;;;;;5058208;28;20458;-72
2022/03/08 09:53:31;;;;;;;12.10;9.30;;;6.40;51.60;;;;;;5057055;28;20202;-73
2022/03/08 09:56:00;;;;;;;13.17;9.33;;;6.40;51.60;;;;;;5057970;28;20434;-73
2022/03/08 09:58:26;;;;;;;11.50;10.30;;;6.40;51.60;;;;;;5059008;28;20796;-72
2022/03/08 10:00:55;;;;;;;13.87;9.40;;;6.50;51.50;;;;;;5061427;28;20465;-73
2022/03/08 10:03:35;;;;;;;10.50;9.37;;;6.40;51.50;;;;;;5045030;28;20214;-72
2022/03/08 10:06:01;;;;;;;14.00;9.67;;;6.60;51.70;;;;;;5059476;28;20437;-71
2022/03/08 10:08:28;;;;;;;13.33;10.10;;;6.70;51.80;;;;;;5059082;28;20487;-72
2022/03/08 10:10:58;;;;;;;13.60;10.60;;;6.80;51.30;;;;;;5044939;28;20678;-72
2022/03/08 10:13:30;;;;;;;13.93;9.90;;;6.90;51.30;;;;;;5058834;28;20776;-72
2022/03/08 10:16:07;;;;;;;11.90;9.40;;;6.80;51.10;;;;;;5059439;28;20475;-72
2022/03/08 10:18:47;;;;;;;16.83;11.03;;;6.80;51.20;;;;;;5057346;28;20445;-73
2022/03/08 10:21:34;;;;;;;12.53;10.23;;;6.80;51.40;;;;;;5059918;28;20555;-73
2022/03/08 10:24:14;;;;;;;14.30;9.90;;;6.80;50.80;;;;;;5060680;28;20927;-72
2022/03/08 10:27:01;;;;;;;13.73;10.67;;;6.90;51.40;;;;;;5063013;28;20424;-72
2022/03/08 10:29:32;;;;;;;12.87;9.40;;;7.00;51.60;;;;;;5059590;28;20463;-69
2022/03/08 10:32:21;;;;;;;14.17;10.93;;;7.10;51.30;;;;;;5059371;28;20494;-70
2022/03/08 10:34:58;;;;;;;12.37;10.07;;;7.20;51.20;;;;;;5060622;28;20490;-72
2022/03/08 10:37:24;;;;;;;10.83;9.70;;;7.30;51.10;;;;;;5063908;28;20517;-72
2022/03/08 10:40:00;;;;;;;14.43;10.17;;;7.30;51.50;;;;;;5063665;28;21240;-69
2022/03/08 10:42:28;;;;;;;11.53;9.67;;;7.40;50.80;;;;;;5065070;28;20845;-69
2022/03/08 10:45:03;;;;;;;14.53;10.30;;;7.40;51.20;;;;;;5061670;28;20463;-69
2022/03/08 10:47:44;;;;;;;15.87;11.03;;;7.50;51.00;;;;;;5064603;28;20799;-69
2022/03/08 10:50:12;;;;;;;11.60;9.60;;;7.50;50.90;;;;;;5063832;28;20448;-69
2022/03/08 10:52:40;;;;;;;13.70;8.67;;;7.60;49.90;;;;;;5065981;28;20432;-68
2022/03/08 10:55:45;;;;;;;13.80;10.57;;;7.60;49.50;;;;;;5061947;28;20440;-68
2022/03/08 10:58:12;;;;;;;16.33;9.43;;;7.70;50.00;;;;;;5009767;28;20441;-69
2022/03/08 11:00:44;;;;;;;13.70;9.30;;;7.80;50.40;;;;;;5041611;28;20552;-71
2022/03/08 11:03:19;;;;;;;9.63;8.50;;;8.00;50.00;;;;;;5062241;28;20503;-71
2022/03/08 11:05:50;;;;;;;12.47;10.10;;;7.90;50.20;;;;;;5058354;28;20542;-71
2022/03/08 11:08:17;;;;;;;10.93;8.80;;;8.00;49.70;;;;;;5062232;28;20459;-72
2022/03/08 11:10:44;;;;;;;13.63;9.03;;;8.10;48.90;;;;;;5060722;28;20464;-72
2022/03/08 11:13:11;;;;;;;11.47;8.70;;;8.20;48.90;;;;;;5061802;28;20809;-71
2022/03/08 11:15:39;;;;;;;11.93;8.53;;;8.30;48.70;;;;;;5062437;28;20814;-69
2022/03/08 11:18:08;;;;;;;11.87;7.53;;;8.30;48.70;;;;;;5063614;28;20490;-69
2022/03/08 11:20:35;;;;;;;12.33;7.40;;;8.40;48.30;;;;;;5065896;28;20472;-72
2022/03/08 11:23:02;;;;;;;9.70;8.70;;;8.60;48.00;;;;;;5061461;28;20856;-69
2022/03/08 11:25:31;;;;;;;12.27;9.10;;;8.70;48.10;;;;;;5063409;28;21036;-73
2022/03/08 11:27:57;;;;;;;12.83;8.27;;;8.70;47.40;;;;;;5057770;28;20444;-73
2022/03/08 11:30:29;;;;;;;10.63;8.17;;;8.80;47.20;;;;;;5061614;28;20872;-72
2022/03/08 11:33:31;;;;;;;8.70;7.80;;;8.80;47.20;;;;;;5061792;28;20441;-71
2022/03/08 11:36:02;;;;;;;11.33;8.20;;;8.90;47.30;;;;;;5040427;28;22272;-70
2022/03/08 11:38:28;;;;;;;10.90;7.83;;;8.90;47.00;;;;;;5058010;28;20436;-71
2022/03/08 11:40:58;;;;;;;11.80;8.83;;;9.00;46.90;;;;;;5061619;28;20466;-72
2022/03/08 11:43:38;;;;;;;7.60;6.77;;;9.10;46.60;;;;;;5055666;28;20191;-71
2022/03/08 11:46:18;;;;;;;9.40;7.90;;;9.20;46.30;;;;;;5061477;28;20460;-72
2022/03/08 11:48:53;;;;;;;8.57;7.03;;;9.20;45.30;;;;;;5059274;28;20447;-73
2022/03/08 11:51:20;;;;;;;10.07;8.20;;;9.40;45.20;;;;;;5042183;28;20465;-74
2022/03/08 11:53:47;;;;;;;9.00;8.10;;;9.50;45.30;;;;;;5062665;28;20444;-72
2022/03/08 11:56:21;;;;;;;10.37;7.57;;;9.60;45.60;;;;;;5061783;28;20540;-72
2022/03/08 11:58:49;;;;;;;14.73;7.53;;;9.80;45.70;;;;;;5060420;28;20914;-72
2022/03/08 12:01:41;;;;;;;8.20;7.37;;;9.90;45.30;;;;;;5063571;28;20740;-71
2022/03/08 12:04:16;;;;;;;8.37;7.47;;;10.10;44.20;;;;;;5037558;28;21608;-70
2022/03/08 12:06:49;;;;;;;9.80;8.47;;;10.20;43.70;;;;;;5062893;28;20441;-71
2022/03/08 12:09:18;;;;;;;13.00;7.87;;;10.50;43.60;;;;;;5060071;28;20449;-69
2022/03/08 12:11:47;;;;;;;12.03;8.13;;;10.80;43.00;;;;;;5061460;28;20839;-74
2022/03/08 12:14:18;;;;;;;8.33;7.43;;;11.40;42.80;;;;;;5055993;28;20598;-71
2022/03/08 12:16:47;;;;;;;9.97;7.47;;;12.00;41.60;;;;;;5062106;28;21234;-73
2022/03/08 12:19:19;;;;;;;7.77;6.97;;;13.00;40.20;;;;;;5054420;28;20457;-70
2022/03/08 12:21:52;;;;;;;7.93;7.17;;;14.00;39.50;;;;;;5061049;28;21073;-70
2022/03/08 12:24:21;;;;;;;11.47;7.70;;;14.60;38.90;;;;;;5060606;28;20466;-72
2022/03/08 12:26:50;;;;;;;9.50;7.57;;;15.10;38.20;;;;;;5064112;28;20506;-73
2022/03/08 12:29:51;;;;;;;9.27;7.90;;;15.60;37.40;;;;;;5059073;28;20449;-70
2022/03/08 12:32:29;;;;;;;10.70;7.73;;;16.30;36.60;;;;;;5062309;28;20515;-71
2022/03/08 12:34:59;;;;;;;9.10;8.20;;;16.90;35.60;;;;;;5057767;28;20433;-71
2022/03/08 12:38:01;;;;;;;8.20;7.40;;;17.00;35.30;;;;;;5059812;28;20508;-71
2022/03/08 12:40:29;;;;;;;8.10;7.27;;;17.10;34.30;;;;;;5057186;28;20468;-71
2022/03/08 12:43:08;;;;;;;10.10;7.20;;;17.40;35.00;;;;;;5057925;28;20438;-72
2022/03/08 12:45:40;;;;;;;7.80;7.00;;;17.40;33.90;;;;;;5058714;28;20426;-72